Back to top

Casper, Wyoming Weather

Natrona County International Airport, Casper, WY: 11/18/2018 12:53
Visibility10 statute mileswind sock with clear sky
View 7-Day Forecast
Area Summary
Sky/CloudsSky Clear
Weather [last 24 hours]None [snow ended 13:24; snow began 23:10 ended 23:23; snow began 00:03; snow ended 08:07; snow began 09:29; snow ended 10:16 began 10:51; snow ended 11:33; snow began 12:19 ended 12:29 ]
Pressure30.04 in.Hg (1017 hPa)
Dew Point17.1 °F (-8.3 °C)
Relative Humidity65.8 %
Hourly PrecipitationTrace
Last 24-Hour Precip.Trace
Reading TimePrecipitation
6-hr ending 11/18@10:53Trace
6-hr ending 11/18@04:53Trace
24-hr ending 11/18@04:530.06 in. (1.524 mm)
Temperature27 °F (-2.8 °C)red thermometer
Wind Chill11.1 °F (-11.6 °C) @ gust 9.41 °F (-12.5 °C)
Reading TimeMinimum to Maximum Temperature
6-hr ending 11/18@10:5312.9 °F to 24.1 °F (-10.6 °C to -4.4 °C)
6-hr ending 11/18@04:537 °F to 16 °F (-13.9 °C to -8.9 °C)
Wind28.8 MPH (25 KT) gusting to 36.8 MPH (32 KT)green arrow pointing 202.5 degrees
Wind FromSouth/Southwest (210 Degrees)
Last Hour's Peak Wind41.4 MPH (36 KT) on 11/18@12:16
Last Hour's Peak Wind FromSouthwest (220 Degrees)
Rolling 24-hr Peak Wind49.5 MPH (43 KT) on 11/18@10:53
Rolling 24-hr Peak Wind FromSouthwest (220 Degrees)
Twilight Begins06:32Sunshine Yesterday
Sunrise07:03N/A
Sunset16:39
Twilight Ends17:10
METARKCPR 181953Z 21025G32KT 10SM CLR M03/M08 A3004 RMK AO2 PK WND 22036/1916 SNB19E29 SLP227 P0000 T10281083